Time;durP1;ratioP1;P1;durP2;ratioP2;P2;SDS_P1;SDS_P2;PMS_P1;PMS_P2;Temp;Humidity;BMP_temperature;BMP_pressure;BME280_temperature;BME280_humidity;BME280_pressure;Samples;Min_cycle;Max_cycle;Signal;HPM_P1;HPM_P2
2022/06/09 00:00:14;;;;;;;11.23;4.80;;;;;;;21.26;56.82;100869.91;5076726;28;20463;-57
2022/06/09 00:02:45;;;;;;;10.57;5.25;;;;;;;21.25;57.09;100868.25;5075702;28;20175;-56
2022/06/09 00:05:13;;;;;;;7.65;3.85;;;;;;;21.25;57.21;100862.84;5077665;28;20077;-56
2022/06/09 00:07:40;;;;;;;8.00;4.20;;;;;;;21.24;56.72;100872.81;5076020;28;20052;-57
2022/06/09 00:10:12;;;;;;;9.13;4.18;;;;;;;21.23;56.90;100881.03;5080611;28;20045;-57
2022/06/09 00:12:39;;;;;;;11.20;4.50;;;;;;;21.22;56.78;100882.91;5080863;28;20050;-56
2022/06/09 00:15:08;;;;;;;10.27;4.68;;;;;;;21.20;56.81;100883.09;5075892;28;20134;-57
2022/06/09 00:17:35;;;;;;;8.45;3.95;;;;;;;21.18;57.13;100890.50;5075515;28;20041;-57
2022/06/09 00:20:03;;;;;;;7.72;4.40;;;;;;;21.19;57.26;100891.34;5075327;28;20043;-57
2022/06/09 00:22:30;;;;;;;10.73;4.95;;;;;;;21.19;57.11;100891.34;5074856;28;20055;-57
2022/06/09 00:24:57;;;;;;;9.82;4.85;;;;;;;21.19;57.09;100888.66;5074547;28;20127;-56
2022/06/09 00:27:24;;;;;;;11.15;4.30;;;;;;;21.18;57.35;100890.50;5072539;28;20130;-56
2022/06/09 00:29:51;;;;;;;8.70;4.22;;;;;;;21.18;57.20;100897.75;5076358;28;20039;-56
2022/06/09 00:32:17;;;;;;;8.02;4.13;;;;;;;21.17;57.29;100899.59;5075370;28;20926;-56
2022/06/09 00:34:44;;;;;;;10.32;4.57;;;;;;;21.17;56.89;100896.06;5072733;28;20059;-56
2022/06/09 00:37:10;;;;;;;9.27;4.05;;;;;;;21.16;57.13;100905.19;5078667;28;20132;-56
2022/06/09 00:39:37;;;;;;;10.52;4.28;;;;;;;21.16;57.04;100910.56;5075378;28;20119;-57
2022/06/09 00:42:05;;;;;;;6.43;3.83;;;;;;;21.15;57.62;100914.28;5074847;28;20067;-56
2022/06/09 00:44:32;;;;;;;8.25;4.20;;;;;;;21.13;57.23;100914.44;5079207;28;20147;-56
2022/06/09 00:47:11;;;;;;;9.27;4.10;;;;;;;21.13;57.20;100913.59;5073296;28;20338;-56
2022/06/09 00:49:45;;;;;;;9.02;4.43;;;;;;;21.11;57.30;100916.47;5074314;28;20048;-56
2022/06/09 00:52:15;;;;;;;8.75;3.95;;;;;;;21.11;57.16;100921.03;5073357;28;20048;-56
2022/06/09 00:54:53;;;;;;;7.72;4.00;;;;;;;21.10;57.65;100925.56;5074686;28;20048;-57
2022/06/09 00:57:24;;;;;;;8.00;3.80;;;;;;;21.11;57.08;100921.88;5077441;28;20459;-57
2022/06/09 00:59:54;;;;;;;9.52;4.53;;;;;;;21.10;57.29;100920.16;5076426;28;20179;-56
2022/06/09 01:02:21;;;;;;;8.70;4.13;;;;;;;21.09;57.54;100923.88;5078572;28;20066;-56
2022/06/09 01:04:52;;;;;;;9.00;3.58;;;;;;;21.07;57.59;100917.84;5076719;28;20056;-57
2022/06/09 01:07:25;;;;;;;7.45;3.58;;;;;;;21.06;57.76;100926.91;5075935;28;20043;-56
2022/06/09 01:09:52;;;;;;;6.40;3.30;;;;;;;21.07;57.39;100925.91;5073457;28;20040;-56
2022/06/09 01:12:28;;;;;;;7.68;3.63;;;;;;;21.07;57.10;100925.91;5079092;28;20052;-57
2022/06/09 01:15:01;;;;;;;10.13;4.25;;;;;;;21.06;57.14;100923.38;5079360;28;20136;-56
2022/06/09 01:17:51;;;;;;;7.03;3.92;;;;;;;21.04;57.60;100926.25;5075819;28;20040;-56
2022/06/09 01:20:48;;;;;;;5.28;2.88;;;;;;;21.05;57.20;100932.47;5076394;28;20051;-56
2022/06/09 01:23:39;;;;;;;7.03;3.40;;;;;;;21.04;57.34;100930.81;5072209;28;20438;-56
2022/06/09 01:26:08;;;;;;;7.45;3.55;;;;;;;21.03;57.21;100935.38;5076056;28;20173;-57
2022/06/09 01:29:13;;;;;;;7.82;3.60;;;;;;;21.02;57.48;100936.34;5075983;28;20037;-57
2022/06/09 01:31:47;;;;;;;7.97;3.70;;;;;;;21.02;57.48;100939.03;5078522;28;20064;-57
2022/06/09 01:34:38;;;;;;;9.63;3.58;;;;;;;21.01;57.43;100942.75;5074226;28;20068;-57
2022/06/09 01:37:12;;;;;;;7.88;3.45;;;;;;;21.01;57.22;100950.00;5074717;28;20054;-57
2022/06/09 01:40:06;;;;;;;4.10;2.80;;;;;;;21.00;57.09;100946.47;5073085;28;20323;-56
2022/06/09 01:42:35;;;;;;;6.78;3.72;;;;;;;21.00;56.98;100943.78;5072974;28;20048;-56
2022/06/09 01:45:09;;;;;;;7.85;2.95;;;;;;;21.00;57.14;100948.34;5071179;28;20036;-57
2022/06/09 01:47:43;;;;;;;7.72;3.00;;;;;;;20.98;57.41;100932.31;5075887;28;20062;-56
2022/06/09 01:50:16;;;;;;;5.63;3.08;;;;;;;20.98;57.52;100937.72;5076470;28;20320;-56
2022/06/09 01:52:44;;;;;;;;;;;;;;;20.98;57.28;100945.78;5075830;28;20035;-57
2022/06/09 01:55:17;;;;;;;7.97;3.22;;;;;;;20.99;57.28;100949.34;5077156;28;19972;-57
2022/06/09 01:57:50;;;;;;;8.83;3.37;;;;;;;20.99;57.54;100952.88;5076941;28;20450;-57
2022/06/09 02:00:18;;;;;;;7.18;2.92;;;;;;;20.99;57.52;100965.53;5078608;28;20778;-56
2022/06/09 02:02:49;;;;;;;9.30;3.72;;;;;;;20.98;57.26;100959.25;5079460;28;20132;-57
2022/06/09 02:05:28;;;;;;;5.80;2.78;;;;;;;20.95;57.26;100959.63;5078535;28;20044;-57
2022/06/09 02:07:59;;;;;;;5.93;2.95;;;;;;;20.95;57.42;100962.31;5079349;28;20072;-57
2022/06/09 02:10:37;;;;;;;5.13;2.60;;;;;;;20.95;57.31;100965.00;5080238;28;20044;-56
2022/06/09 02:13:31;;;;;;;5.53;2.90;;;;;;;20.93;57.33;100980.50;5081647;28;20055;-56
2022/06/09 02:16:01;;;;;;;6.88;2.80;;;;;;;20.93;57.42;100981.34;5079442;28;20058;-56
2022/06/09 02:18:34;;;;;;;5.15;2.53;;;;;;;20.93;57.42;100986.72;5078022;28;20044;-57
2022/06/09 02:21:12;;;;;;;6.65;3.15;;;;;;;20.92;57.17;100976.97;5077722;28;20094;-57
2022/06/09 02:23:39;;;;;;;6.43;2.65;;;;;;;20.92;57.18;100982.34;5079221;28;20062;-57
2022/06/09 02:26:06;;;;;;;9.07;3.35;;;;;;;20.93;57.31;100981.34;5079611;28;20048;-56
2022/06/09 02:28:33;;;;;;;5.38;2.55;;;;;;;20.92;57.57;100984.22;5079156;28;20048;-56
2022/06/09 02:31:00;;;;;;;5.68;2.90;;;;;;;20.93;57.38;100988.59;5079852;28;20063;-56
2022/06/09 02:33:27;;;;;;;4.95;2.58;;;;;;;20.91;57.10;100993.31;5081609;28;20324;-57
2022/06/09 02:35:55;;;;;;;5.45;1.90;;;;;;;20.90;57.29;100988.91;5078507;28;20493;-57
2022/06/09 02:38:22;;;;;;;4.53;2.70;;;;;;;20.91;57.53;100996.00;5076889;28;20048;-55
2022/06/09 02:40:51;;;;;;;5.63;2.47;;;;;;;20.88;57.08;100997.19;5081306;28;20060;-56
2022/06/09 02:43:17;;;;;;;5.85;2.60;;;;;;;20.89;57.29;101001.53;5074445;28;20052;-56
2022/06/09 02:45:44;;;;;;;5.82;2.45;;;;;;;20.90;57.20;101010.47;5078965;28;20693;-56
2022/06/09 02:48:12;;;;;;;6.53;2.80;;;;;;;20.89;57.36;101012.31;5076956;28;20044;-56
2022/06/09 02:50:40;;;;;;;4.65;2.30;;;;;;;20.88;57.10;101010.66;5080044;28;20054;-56
2022/06/09 02:53:07;;;;;;;5.03;2.95;;;;;;;20.88;57.44;101007.94;5076357;28;20044;-56
2022/06/09 02:55:35;;;;;;;6.38;2.60;;;;;;;20.88;57.73;101012.50;5075536;28;20357;-57
2022/06/09 02:58:02;;;;;;;4.38;2.28;;;;;;;20.87;57.82;101018.91;5074636;28;20721;-56
2022/06/09 03:00:29;;;;;;;4.55;2.63;;;;;;;20.88;56.96;101028.66;5077739;28;20173;-56
2022/06/09 03:03:00;;;;;;;5.15;2.83;;;;;;;20.87;57.63;101021.59;5077912;28;20122;-56
2022/06/09 03:05:30;;;;;;;5.53;2.28;;;;;;;20.86;57.13;101025.28;5071597;28;20805;-57
2022/06/09 03:07:57;;;;;;;3.65;1.80;;;;;;;20.85;57.35;101023.59;5077356;28;20047;-56
2022/06/09 03:10:24;;;;;;;6.10;2.55;;;;;;;20.86;57.60;101030.69;5077072;28;20062;-56
2022/06/09 03:12:51;;;;;;;6.32;2.70;;;;;;;20.85;57.22;101042.47;5078080;28;20058;-56
2022/06/09 03:15:20;;;;;;;4.70;2.47;;;;;;;20.85;57.09;101042.47;5076834;28;20055;-56
2022/06/09 03:17:47;;;;;;;4.95;2.20;;;;;;;20.85;57.67;101045.16;5075810;28;20050;-56
2022/06/09 03:20:18;;;;;;;4.60;1.77;;;;;;;20.85;57.13;101046.00;5074740;28;20048;-56
2022/06/09 03:22:45;;;;;;;5.18;2.42;;;;;;;20.85;57.48;101047.84;5075826;28;20135;-56
2022/06/09 03:25:11;;;;;;;4.88;2.40;;;;;;;20.86;57.55;101054.91;5078380;28;20339;-57
2022/06/09 03:27:39;;;;;;;3.88;2.30;;;;;;;20.86;57.80;101057.63;5078083;28;20046;-56
2022/06/09 03:30:07;;;;;;;4.70;2.20;;;;;;;20.83;57.80;101053.41;5078171;28;20040;-56
2022/06/09 03:32:34;;;;;;;4.35;2.17;;;;;;;20.84;57.28;101060.50;5078551;28;20052;-56
2022/06/09 03:35:00;;;;;;;3.22;2.05;;;;;;;20.83;57.21;101064.19;5073128;28;20047;-56
2022/06/09 03:37:27;;;;;;;4.95;1.92;;;;;;;20.83;57.34;101060.66;5076487;28;20050;-56
2022/06/09 03:39:54;;;;;;;4.25;1.88;;;;;;;20.84;57.16;101073.13;5075518;28;20036;-56
2022/06/09 03:42:20;;;;;;;3.78;1.73;;;;;;;20.84;57.26;101078.50;5074732;28;20055;-56
2022/06/09 03:44:47;;;;;;;4.75;1.85;;;;;;;20.83;57.30;101079.53;5075194;28;20040;-56
2022/06/09 03:47:13;;;;;;;4.35;2.03;;;;;;;20.82;57.18;101070.56;5075853;28;20053;-56
2022/06/09 03:49:40;;;;;;;3.97;2.05;;;;;;;20.82;57.52;101077.81;5074161;28;20450;-56
2022/06/09 03:52:07;;;;;;;5.13;2.50;;;;;;;20.82;57.27;101084.03;5077835;28;20056;-57
2022/06/09 03:54:36;;;;;;;4.70;1.98;;;;;;;20.81;57.12;101076.97;5080415;28;20304;-56
2022/06/09 03:57:03;;;;;;;4.90;1.98;;;;;;;20.82;57.53;101084.03;5078657;28;20131;-55
2022/06/09 03:59:30;;;;;;;4.70;1.90;;;;;;;20.82;57.45;101089.44;5077536;28;20140;-56
2022/06/09 04:01:56;;;;;;;7.97;3.00;;;;;;;20.82;57.76;101097.50;5074688;28;20048;-56
2022/06/09 04:04:23;;;;;;;12.13;3.17;;;;;;;20.82;57.41;101102.06;5074825;28;20055;-56
2022/06/09 04:06:50;;;;;;;14.45;4.05;;;;;;;20.82;57.42;101107.44;5079080;28;20039;-56
2022/06/09 04:09:16;;;;;;;16.83;4.63;;;;;;;20.82;57.55;101104.75;5083562;28;20131;-56
2022/06/09 04:11:43;;;;;;;13.63;4.32;;;;;;;20.83;57.26;101120.78;5086953;28;20047;-56
2022/06/09 04:14:09;;;;;;;15.88;4.53;;;;;;;20.83;57.24;101119.94;5077264;28;20118;-57
2022/06/09 04:16:40;;;;;;;10.70;4.32;;;;;;;20.82;57.19;101123.63;5078061;28;20059;-56
2022/06/09 04:19:10;;;;;;;9.68;3.55;;;;;;;20.81;57.21;101127.31;5074931;28;20036;-56
2022/06/09 04:21:37;;;;;;;11.00;3.78;;;;;;;20.81;57.79;101130.84;5081949;28;20045;-56
2022/06/09 04:24:04;;;;;;;14.18;4.63;;;;;;;20.82;57.13;101135.22;5076551;28;20288;-56
2022/06/09 04:26:34;;;;;;;13.10;4.90;;;;;;;20.82;57.23;101131.69;5076159;28;20052;-56
2022/06/09 04:29:02;;;;;;;17.67;5.13;;;;;;;20.82;57.45;101132.53;5075975;28;20182;-56
2022/06/09 04:31:29;;;;;;;16.30;4.68;;;;;;;20.82;57.59;101140.63;5080274;28;20392;-56
2022/06/09 04:33:55;;;;;;;11.85;4.65;;;;;;;20.84;57.16;101145.88;5077350;28;20048;-56
2022/06/09 04:36:22;;;;;;;12.82;4.03;;;;;;;20.83;57.47;101150.41;5082979;28;20068;-56
2022/06/09 04:38:48;;;;;;;13.40;4.75;;;;;;;20.84;57.34;101159.34;5080556;28;20063;-56
2022/06/09 04:41:16;;;;;;;10.93;4.03;;;;;;;20.85;57.09;101152.94;5079740;28;20052;-56
2022/06/09 04:43:46;;;;;;;12.48;4.40;;;;;;;20.86;57.40;101157.31;5079240;28;20036;-56
2022/06/09 04:46:17;;;;;;;11.80;4.82;;;;;;;20.87;57.15;101153.63;5080827;28;20090;-56
2022/06/09 04:48:44;;;;;;;12.73;5.25;;;;;;;20.89;56.85;101154.28;5077887;28;20056;-56
2022/06/09 04:51:13;;;;;;;10.90;4.57;;;;;;;20.90;56.95;101158.66;5080775;28;20392;-56
2022/06/09 04:53:40;;;;;;;11.90;4.30;;;;;;;20.90;56.91;101161.34;5079774;28;20430;-56
2022/06/09 04:56:07;;;;;;;13.30;4.38;;;;;;;20.90;57.21;101167.63;5079578;28;20127;-56
2022/06/09 04:58:34;;;;;;;9.30;4.10;;;;;;;20.90;56.83;101172.13;5079484;28;20043;-56
2022/06/09 05:01:01;;;;;;;11.82;5.00;;;;;;;20.92;57.19;101172.81;5077717;28;20046;-56
2022/06/09 05:03:27;;;;;;;18.60;7.15;;;;;;;20.95;56.85;101180.59;5080428;28;20071;-56
2022/06/09 05:05:54;;;;;;;16.10;5.05;;;;;;;20.98;56.24;101184.78;5079333;28;20138;-56
2022/06/09 05:08:21;;;;;;;14.82;5.70;;;;;;;21.00;56.75;101185.47;5074540;28;20056;-56
2022/06/09 05:10:47;;;;;;;18.60;6.05;;;;;;;21.01;56.26;101188.00;5078191;28;20044;-56
2022/06/09 05:13:15;;;;;;;16.13;5.88;;;;;;;21.05;56.79;101194.75;5074185;28;20423;-56
2022/06/09 05:15:50;;;;;;;17.33;6.38;;;;;;;21.07;56.70;101206.22;5073752;28;20048;-56
2022/06/09 05:18:23;;;;;;;22.73;6.57;;;;;;;21.09;56.69;101209.56;5074480;28;20151;-56
2022/06/09 05:20:51;;;;;;;21.58;7.70;;;;;;;21.10;56.11;101211.25;5076096;28;20179;-56
2022/06/09 05:23:19;;;;;;;24.48;8.13;;;;;;;21.12;56.07;101211.94;5075121;28;20428;-57
2022/06/09 05:25:47;;;;;;;21.60;7.32;;;;;;;21.13;56.57;101216.31;5076007;28;20048;-56
2022/06/09 05:28:14;;;;;;;23.75;7.05;;;;;;;21.13;56.03;101231.66;5079124;28;20047;-57
2022/06/09 05:30:40;;;;;;;23.60;7.55;;;;;;;21.12;56.14;101219.19;5080782;28;20058;-56
2022/06/09 05:33:07;;;;;;;20.77;6.68;;;;;;;21.12;56.02;101222.72;5077948;28;20048;-56
2022/06/09 05:35:35;;;;;;;17.70;6.88;;;;;;;21.12;56.32;101225.44;5080459;28;20087;-56
2022/06/09 05:46:17;;;;;;;22.30;6.47;;;;;;;21.11;55.96;101249.88;5081537;28;20127;-57
2022/06/09 05:48:45;;;;;;;16.50;5.82;;;;;;;21.11;56.17;101255.25;5081230;28;20055;-56
2022/06/09 05:51:13;;;;;;;15.35;6.13;;;;;;;21.11;56.07;101266.88;5081119;28;20119;-56
2022/06/09 05:53:40;;;;;;;16.35;5.43;;;;;;;21.12;55.89;101267.72;5078960;28;20052;-57
2022/06/09 05:56:08;;;;;;;16.02;5.50;;;;;;;21.13;55.99;101270.22;5082632;28;20079;-57
2022/06/09 05:58:36;;;;;;;16.85;5.53;;;;;;;21.14;56.13;101276.47;5079274;28;20046;-56
2022/06/09 06:01:05;;;;;;;17.23;5.32;;;;;;;21.14;56.23;101276.47;5077921;28;20050;-57
2022/06/09 06:03:32;;;;;;;16.92;5.03;;;;;;;21.14;55.86;101282.69;5079636;28;20356;-57
2022/06/09 06:08:44;;;;;;;14.32;4.70;;;;;;;21.14;55.83;101288.09;5080348;28;20852;-57
2022/06/09 06:11:10;;;;;;;13.48;4.70;;;;;;;21.15;56.02;101297.88;5079219;28;20132;-56
2022/06/09 06:13:37;;;;;;;13.77;4.60;;;;;;;21.15;55.81;101297.88;5077675;28;20427;-56
2022/06/09 06:16:04;;;;;;;12.50;5.40;;;;;;;21.15;56.25;101305.97;5080285;28;20044;-57
2022/06/09 06:18:51;;;;;;;14.45;4.97;;;;;;;21.15;55.64;101315.91;5077459;28;20063;-56
2022/06/09 06:21:17;;;;;;;10.32;4.43;;;;;;;21.15;56.06;101310.53;5081039;28;20044;-56
2022/06/09 06:23:45;;;;;;;13.13;4.40;;;;;;;21.14;55.81;101325.81;5075495;28;20378;-57
2022/06/09 06:26:12;;;;;;;12.27;4.05;;;;;;;21.14;55.84;101327.69;5080045;28;20048;-57
2022/06/09 06:28:38;;;;;;;10.25;3.30;;;;;;;21.12;55.63;101335.94;5076965;28;20138;-57
2022/06/09 06:31:05;;;;;;;9.45;3.80;;;;;;;21.12;55.67;101333.25;5078901;28;20054;-57
2022/06/09 06:33:32;;;;;;;8.25;3.60;;;;;;;21.12;55.91;101332.41;5077728;28;20070;-56
2022/06/09 06:35:58;;;;;;;11.88;3.78;;;;;;;21.10;55.55;101337.94;5081104;28;20817;-56
2022/06/09 06:38:25;;;;;;;8.73;4.32;;;;;;;21.10;55.97;101342.50;5076893;28;20163;-56
2022/06/09 06:40:51;;;;;;;5.20;2.83;;;;;;;21.10;55.73;101334.41;5077416;28;20112;-56
2022/06/09 06:43:18;;;;;;;11.18;3.42;;;;;;;21.10;55.52;101345.19;5078857;28;20332;-56
2022/06/09 06:45:45;;;;;;;7.13;3.25;;;;;;;21.09;56.01;101357.81;5080707;28;20050;-57
2022/06/09 06:48:11;;;;;;;8.07;3.53;;;;;;;21.09;55.45;101355.13;5077757;28;20044;-57
2022/06/09 06:50:38;;;;;;;7.70;3.50;;;;;;;21.11;55.87;101363.91;5077678;28;20039;-56
2022/06/09 06:53:05;;;;;;;8.45;2.95;;;;;;;21.10;55.45;101364.06;5077583;28;20137;-56
2022/06/09 06:55:32;;;;;;;6.85;3.00;;;;;;;21.10;55.94;101366.75;5079044;28;20040;-56
2022/06/09 06:58:01;;;;;;;7.72;3.42;;;;;;;21.10;55.63;101362.19;5080404;28;20385;-57
2022/06/09 07:00:27;;;;;;;6.30;2.90;;;;;;;21.12;55.89;101373.69;5077920;28;20054;-56
2022/06/09 07:02:54;;;;;;;7.22;3.15;;;;;;;21.13;55.61;101377.22;5078108;28;20071;-56
2022/06/09 07:05:38;;;;;;;6.82;3.45;;;;;;;21.12;55.74;101378.22;5077636;28;20071;-56
2022/06/09 07:08:07;;;;;;;6.20;2.65;;;;;;;21.13;55.35;101382.59;5076989;28;20130;-56
2022/06/09 07:10:34;;;;;;;5.03;2.50;;;;;;;21.14;55.43;101381.59;5081023;28;20139;-57
2022/06/09 07:13:02;;;;;;;7.95;2.60;;;;;;;21.15;55.62;101386.84;5081220;28;20083;-57
2022/06/09 07:15:30;;;;;;;7.80;3.22;;;;;;;21.17;55.68;101383.97;5078603;28;20108;-56
2022/06/09 07:17:57;;;;;;;3.28;2.15;;;;;;;21.18;55.49;101386.50;5078390;28;20044;-56
2022/06/09 07:20:24;;;;;;;5.13;2.33;;;;;;;21.20;55.40;101397.97;5078132;28;20606;-56
2022/06/09 07:22:51;;;;;;;5.60;2.60;;;;;;;21.22;55.56;101400.50;5077478;28;20044;-56
2022/06/09 07:25:20;;;;;;;4.65;2.30;;;;;;;21.24;55.70;101403.06;5078722;28;20062;-56
2022/06/09 07:27:47;;;;;;;5.20;2.13;;;;;;;21.26;55.59;101399.19;5076790;28;20059;-56
2022/06/09 07:30:15;;;;;;;5.47;2.17;;;;;;;21.27;55.70;101400.03;5075441;28;20044;-56
2022/06/09 07:32:42;;;;;;;5.70;2.35;;;;;;;21.28;55.44;101401.72;5078823;28;20088;-56
2022/06/09 07:35:09;;;;;;;6.28;2.10;;;;;;;21.29;55.15;101414.19;5077431;28;20098;-56
2022/06/09 07:37:36;;;;;;;5.68;2.28;;;;;;;21.30;55.08;101415.88;5080942;28;20074;-56
2022/06/09 07:40:04;;;;;;;6.75;2.25;;;;;;;21.30;55.20;101422.09;5076898;28;20041;-56
2022/06/09 07:42:33;;;;;;;5.28;1.98;;;;;;;21.31;55.68;101422.97;5077274;28;20434;-57
2022/06/09 07:45:00;;;;;;;4.40;1.50;;;;;;;21.33;55.45;101421.00;5078370;28;20126;-56
2022/06/09 07:47:26;;;;;;;5.25;2.05;;;;;;;21.34;55.27;101418.13;5078319;28;20477;-56
2022/06/09 07:49:53;;;;;;;4.65;1.63;;;;;;;21.35;55.31;101421.69;5079713;28;20050;-56
2022/06/09 07:52:20;;;;;;;2.50;1.40;;;;;;;21.35;55.63;101427.09;5076494;28;20054;-56
2022/06/09 07:54:46;;;;;;;5.28;1.83;;;;;;;21.37;55.29;101430.44;5079830;28;20047;-55
2022/06/09 07:57:13;;;;;;;2.97;1.70;;;;;;;21.37;55.41;101430.44;5080262;28;20044;-56
2022/06/09 07:59:39;;;;;;;3.45;1.60;;;;;;;21.38;55.50;101430.28;5077141;28;20042;-56
2022/06/09 08:02:06;;;;;;;3.30;1.77;;;;;;;21.39;55.17;101431.97;5079093;28;20126;-57
2022/06/09 08:04:35;;;;;;;5.32;1.98;;;;;;;21.40;55.19;101440.91;5078390;28;20121;-56
2022/06/09 08:07:02;;;;;;;4.35;1.70;;;;;;;21.40;54.93;101444.44;5076982;28;20047;-56
2022/06/09 08:09:31;;;;;;;5.35;1.63;;;;;;;21.42;54.81;101446.97;5077779;28;20412;-57
2022/06/09 08:11:58;;;;;;;4.63;2.30;;;;;;;21.42;54.89;101452.38;5079445;28;20115;-56
2022/06/09 08:14:25;;;;;;;3.42;1.30;;;;;;;21.43;54.97;101452.22;5078862;28;20044;-56
2022/06/09 08:16:51;;;;;;;3.90;1.17;;;;;;;21.43;55.19;101454.09;5077742;28;20058;-56
2022/06/09 08:19:19;;;;;;;3.33;1.52;;;;;;;21.44;55.01;101461.16;5077998;28;20071;-57
2022/06/09 08:21:45;;;;;;;2.85;1.27;;;;;;;21.45;54.95;101462.84;5075758;28;20049;-57
2022/06/09 08:24:18;;;;;;;4.15;1.25;;;;;;;21.45;55.06;101465.53;5077594;28;20048;-56
2022/06/09 08:26:45;;;;;;;5.03;1.40;;;;;;;21.46;54.77;101480.72;5080610;28;20123;-56
2022/06/09 08:29:12;;;;;;;3.05;1.75;;;;;;;21.47;54.67;101482.44;5077986;28;20063;-57
2022/06/09 08:31:39;;;;;;;2.47;1.20;;;;;;;21.47;nan;101485.13;5081325;28;20387;-56
2022/06/09 08:34:06;;;;;;;3.17;1.23;;;;;;;21.49;54.97;101487.66;5074902;28;20064;-56
2022/06/09 08:36:32;;;;;;;3.42;1.60;;;;;;;21.49;54.86;101493.03;5079047;28;20048;-57
2022/06/09 08:38:59;;;;;;;4.07;1.20;;;;;;;21.49;55.15;101483.09;5076655;28;20502;-56
2022/06/09 08:41:45;;;;;;;4.03;1.30;;;;;;;21.49;54.74;101493.03;5076786;28;20048;-57
2022/06/09 08:44:16;;;;;;;2.65;1.13;;;;;;;21.52;55.08;101506.22;5078290;28;20044;-55
2022/06/09 08:47:07;;;;;;;2.72;1.40;;;;;;;21.50;54.63;101503.66;5078459;28;20048;-56
2022/06/09 08:50:07;;;;;;;3.28;1.20;;;;;;;21.51;54.95;101504.50;5076643;28;20134;-56
2022/06/09 08:52:44;;;;;;;4.57;1.17;;;;;;;21.52;55.03;101504.34;5078610;28;20139;-57
2022/06/09 08:55:24;;;;;;;3.65;1.25;;;;;;;21.53;54.96;101507.91;5077591;28;20041;-57
2022/06/09 08:57:58;;;;;;;2.72;1.00;;;;;;;21.53;54.53;101503.34;5074444;28;20411;-56
2022/06/09 09:00:24;;;;;;;;;;;;;;;;;;5077679;28;20040;-56
2022/06/09 09:03:07;;;;;;;2.33;1.20;;;;;;;21.57;54.68;101512.81;5077428;28;20018;-56
2022/06/09 09:05:46;;;;;;;2.72;1.27;;;;;;;21.57;54.90;101518.19;5079550;28;20048;-56
2022/06/09 09:08:14;;;;;;;1.63;1.10;;;;;;;21.59;54.87;101512.66;5078075;28;20101;-57
2022/06/09 09:10:51;;;;;;;4.53;1.35;;;;;;;21.59;54.66;101520.75;5080445;28;20354;-56
2022/06/09 09:13:24;;;;;;;3.90;0.90;;;;;;;21.60;54.92;101525.13;5082717;28;20044;-56
2022/06/09 09:15:55;;;;;;;3.25;1.33;;;;;;;21.60;54.65;101517.88;5082067;28;20415;-56
2022/06/09 09:18:41;;;;;;;3.65;1.20;;;;;;;21.61;54.84;101532.22;5082009;28;20433;-56
2022/06/09 09:21:37;;;;;;;3.92;1.30;;;;;;;21.63;54.62;101532.91;5080663;28;20040;-56
2022/06/09 09:24:17;;;;;;;2.35;1.08;;;;;;;21.65;54.41;101533.59;5080892;28;20127;-56
2022/06/09 09:26:57;;;;;;;2.42;1.13;;;;;;;21.67;54.88;101539.69;5078227;28;20056;-56
2022/06/09 09:30:00;;;;;;;3.35;1.42;;;;;;;21.68;54.63;101547.59;5076936;28;20144;-56
2022/06/09 09:32:42;;;;;;;2.97;1.02;;;;;;;21.70;54.72;101558.22;5080136;28;20058;-56
2022/06/09 09:35:17;;;;;;;2.75;1.50;;;;;;;21.72;54.68;101566.19;5078082;28;20438;-56
2022/06/09 09:37:48;;;;;;;2.80;1.10;;;;;;;21.74;54.72;101559.59;5077406;28;20286;-56
2022/06/09 09:40:25;;;;;;;2.28;1.10;;;;;;;21.76;54.30;101568.38;5076892;28;20127;-57
2022/06/09 09:42:55;;;;;;;6.05;1.15;;;;;;;21.78;54.33;101576.31;5078682;28;20048;-56
2022/06/09 09:45:31;;;;;;;2.03;1.00;;;;;;;21.80;54.45;101566.22;5082056;28;20151;-56
2022/06/09 09:48:02;;;;;;;3.40;1.25;;;;;;;21.82;54.14;101578.53;5080487;28;20419;-57
2022/06/09 09:50:38;;;;;;;4.45;1.38;;;;;;;21.84;54.25;101575.69;5081949;28;20043;-57
2022/06/09 09:53:19;;;;;;;3.17;1.13;;;;;;;21.85;54.32;101578.22;5080962;28;20130;-56
2022/06/09 09:55:59;;;;;;;2.90;1.20;;;;;;;21.89;54.35;101590.38;5078400;28;20052;-57
2022/06/09 09:58:25;;;;;;;1.88;0.63;;;;;;;21.91;54.12;101582.97;5082364;28;20041;-57
2022/06/09 10:01:02;;;;;;;3.65;1.00;;;;;;;21.93;54.24;101588.19;5079566;28;20048;-56
2022/06/09 10:09:54;;;;;;;4.63;1.10;;;;;;;21.98;54.05;101602.06;5075170;28;20335;-58
2022/06/09 10:12:23;;;;;;;4.75;0.82;;;;;;;21.99;54.13;101609.16;5080981;28;20046;-57
2022/06/09 10:14:56;;;;;;;4.72;1.00;;;;;;;22.01;53.77;101609.00;5076624;28;20044;-57
2022/06/09 10:18:02;;;;;;;3.60;1.00;;;;;;;22.02;53.81;101622.31;5078412;28;20157;-57
2022/06/09 10:21:06;;;;;;;3.30;0.80;;;;;;;22.05;53.75;101621.16;5080265;28;20387;-57
2022/06/09 10:23:45;;;;;;;2.53;0.95;;;;;;;22.04;53.88;101614.91;5075783;28;20048;-57
2022/06/09 10:26:28;;;;;;;1.10;0.55;;;;;;;22.07;53.62;101624.53;5077923;28;20117;-57
2022/06/09 10:29:16;;;;;;;2.28;0.95;;;;;;;22.08;53.86;101621.69;5073940;28;20127;-56
2022/06/09 10:31:55;;;;;;;1.92;0.70;;;;;;;22.09;53.96;101623.38;5078462;28;20153;-56
2022/06/09 10:34:48;;;;;;;3.25;1.30;;;;;;;22.09;53.61;101631.47;5075430;28;20430;-57
2022/06/09 10:37:21;;;;;;;4.40;1.08;;;;;;;22.11;53.48;101634.88;5076699;28;20163;-57
2022/06/09 10:40:06;;;;;;;2.38;0.90;;;;;;;22.12;53.65;101633.03;5078700;28;20131;-57
2022/06/09 10:42:50;;;;;;;4.30;1.08;;;;;;;22.13;53.42;101643.69;5075035;28;20040;-58
2022/06/09 10:45:19;;;;;;;;;;;;;;;22.14;53.43;101645.38;5078010;28;20044;-58
2022/06/09 10:57:26;;;;;;;3.22;1.05;;;;;;;22.23;53.47;101650.81;5077917;28;20047;-57
2022/06/09 10:59:56;;;;;;;2.30;0.90;;;;;;;22.23;53.41;101654.38;5074946;28;20142;-57
2022/06/09 11:02:26;;;;;;;2.33;0.80;;;;;;;22.26;53.50;101655.88;5074177;28;20048;-58
2022/06/09 11:04:54;;;;;;;1.88;1.00;;;;;;;22.26;53.34;101656.72;5074163;28;21926;-58
2022/06/09 11:07:45;;;;;;;2.08;1.00;;;;;;;22.26;53.63;101656.72;5076513;28;20162;-57
2022/06/09 11:10:32;;;;;;;2.33;1.17;;;;;;;22.30;53.66;101668.06;5075613;28;20117;-57
2022/06/09 11:13:48;;;;;;;4.75;1.00;;;;;;;22.30;53.30;101659.94;5079764;28;20048;-58
2022/06/09 11:16:46;;;;;;;4.05;1.10;;;;;;;22.32;53.46;101676.84;5069149;28;20052;-58
2022/06/09 11:19:54;;;;;;;2.50;0.68;;;;;;;22.32;53.06;101666.06;5077857;28;20348;-57
2022/06/09 11:22:51;;;;;;;3.55;0.82;;;;;;;22.34;53.19;101666.72;5076312;28;20119;-58
2022/06/09 11:25:22;;;;;;;3.13;0.93;;;;;;;22.36;53.60;101675.53;5075063;28;20421;-59
2022/06/09 11:28:17;;;;;;;3.30;0.90;;;;;;;22.35;53.10;101676.50;5074983;28;20040;-59
2022/06/09 11:30:59;;;;;;;2.03;0.90;;;;;;;22.37;53.37;101674.50;5074079;28;20058;-58
2022/06/09 11:33:31;;;;;;;4.40;0.82;;;;;;;22.38;52.99;101684.28;5072774;28;20060;-58
2022/06/09 11:36:23;;;;;;;3.65;1.08;;;;;;;22.39;53.33;101677.88;5076275;28;20043;-58
2022/06/09 11:39:34;;;;;;;4.25;0.77;;;;;;;22.41;53.14;101683.97;5073291;28;20431;-58
2022/06/09 11:42:18;;;;;;;2.78;1.10;;;;;;;22.42;53.02;101689.22;5003394;28;20041;-58
2022/06/09 11:44:52;;;;;;;1.85;0.70;;;;;;;22.43;53.10;101684.66;5001526;28;20377;-57
2022/06/09 11:47:21;;;;;;;2.10;0.60;;;;;;;22.46;52.79;101680.78;5046609;28;20052;-58
2022/06/09 11:49:55;;;;;;;1.30;0.60;;;;;;;22.46;52.89;101687.03;5072491;28;20063;-57
2022/06/09 11:52:29;;;;;;;1.90;0.80;;;;;;;22.48;52.86;101684.19;5074655;28;20491;-58
2022/06/09 11:55:00;;;;;;;2.00;0.90;;;;;;;22.49;52.88;101683.16;5074836;28;20074;-57
2022/06/09 11:57:36;;;;;;;4.53;1.05;;;;;;;22.50;52.79;101682.16;5079623;28;20074;-57
2022/06/09 12:00:18;;;;;;;3.60;1.17;;;;;;;22.51;52.94;101686.53;5071776;28;20055;-57
2022/06/09 12:03:03;;;;;;;2.95;0.90;;;;;;;22.52;52.82;101693.66;5073743;28;21199;-57
2022/06/09 12:06:09;;;;;;;4.07;1.52;;;;;;;22.54;52.62;101699.72;5073460;28;20405;-57
2022/06/09 12:08:46;;;;;;;2.50;1.00;;;;;;;22.55;52.73;101688.78;5036982;28;20119;-58
2022/06/09 12:11:18;;;;;;;4.57;1.23;;;;;;;22.56;52.51;101695.88;5037769;28;20500;-58
2022/06/09 12:13:58;;;;;;;2.90;1.02;;;;;;;22.56;52.43;101698.56;5056274;28;20051;-58